Topcliffe, United Kingdom
Current Conditions -  °F | °C
As of 2:50 AM on Tuesday 21 Oct 2014 (Local Time) from EGXZ Reporting Station
Broken Clouds Broken Clouds  
Wind Chill: 13°   Ceiling: 3100
Heat Index: 13°   Visibility: 6mi
Dew Point: 10°   Wind: 18mph
Humidity: 82%   Direction: 190°S
Pressure: 29.44"   Gusts: NA
Location:  54.2°N, 1.38°W
Report Text: EGXZ 210150Z AUTO 19016KT 9999 SCT022/// BKN031/// 13/10 Q0997
Loading
Personal Weather Stations






























Interactive Weather Map
Tropical Storm Tracking
New forecast layout! Learn more

10-Day Weather Forecast

Advertisements
Track Severe Weather on mobile